sensor_id;sensor_type;location;lat;lon;timestamp;pressure;altitude;pressure_sealevel;temperature;humidity
77778;BME280;66966;-34.746;138.604;2023-04-23T00:00:46;103174.85;;;19.72;35.92
77778;BME280;66966;-34.746;138.604;2023-04-23T00:03:11;103174.02;;;20.18;35.57
77778;BME280;66966;-34.746;138.604;2023-04-23T00:05:37;103170.72;;;20.06;35.08
77778;BME280;66966;-34.746;138.604;2023-04-23T00:08:02;103168.63;;;20.16;35.15
77778;BME280;66966;-34.746;138.604;2023-04-23T00:10:28;103168.52;;;20.31;34.80
77778;BME280;66966;-34.746;138.604;2023-04-23T00:12:53;103164.94;;;20.20;34.97
77778;BME280;66966;-34.746;138.604;2023-04-23T00:15:18;103164.78;;;20.61;34.93
77778;BME280;66966;-34.746;138.604;2023-04-23T00:17:44;103163.15;;;20.76;34.45
77778;BME280;66966;-34.746;138.604;2023-04-23T00:20:09;103160.34;;;20.62;34.52
77778;BME280;66966;-34.746;138.604;2023-04-23T00:22:34;103162.64;;;20.79;34.11
77778;BME280;66966;-34.746;138.604;2023-04-23T00:24:59;103158.87;;;20.75;33.76
77778;BME280;66966;-34.746;138.604;2023-04-23T00:27:25;103161.95;;;20.87;33.86
77778;BME280;66966;-34.746;138.604;2023-04-23T00:29:51;103159.61;;;21.09;33.69
77778;BME280;66966;-34.746;138.604;2023-04-23T00:32:16;103164.27;;;21.17;33.72
77778;BME280;66966;-34.746;138.604;2023-04-23T00:34:41;103155.98;;;21.42;33.40
77778;BME280;66966;-34.746;138.604;2023-04-23T00:37:07;103151.98;;;21.81;32.81
77778;BME280;66966;-34.746;138.604;2023-04-23T00:39:32;103151.22;;;21.71;33.18
77778;BME280;66966;-34.746;138.604;2023-04-23T00:41:58;103150.09;;;21.59;32.90
77778;BME280;66966;-34.746;138.604;2023-04-23T00:44:23;103147.07;;;21.48;32.46
77778;BME280;66966;-34.746;138.604;2023-04-23T00:46:48;103148.47;;;21.62;32.36
77778;BME280;66966;-34.746;138.604;2023-04-23T00:49:14;103147.48;;;21.84;31.97
77778;BME280;66966;-34.746;138.604;2023-04-23T00:51:39;103149.78;;;21.70;32.11
77778;BME280;66966;-34.746;138.604;2023-04-23T00:54:05;103146.40;;;22.01;31.54
77778;BME280;66966;-34.746;138.604;2023-04-23T00:56:30;103147.08;;;22.07;31.94
77778;BME280;66966;-34.746;138.604;2023-04-23T00:58:55;103145.44;;;21.93;31.73
77778;BME280;66966;-34.746;138.604;2023-04-23T01:01:21;103140.15;;;21.85;31.24
77778;BME280;66966;-34.746;138.604;2023-04-23T01:03:46;103138.91;;;22.16;31.39
77778;BME280;66966;-34.746;138.604;2023-04-23T01:06:11;103137.26;;;22.30;31.06
77778;BME280;66966;-34.746;138.604;2023-04-23T01:08:37;103139.25;;;22.42;31.41
77778;BME280;66966;-34.746;138.604;2023-04-23T01:11:02;103140.34;;;22.20;31.08
77778;BME280;66966;-34.746;138.604;2023-04-23T01:13:27;103140.48;;;22.59;31.26
77778;BME280;66966;-34.746;138.604;2023-04-23T01:15:52;103139.09;;;22.59;31.09
77778;BME280;66966;-34.746;138.604;2023-04-23T01:18:18;103138.06;;;22.73;30.36
77778;BME280;66966;-34.746;138.604;2023-04-23T01:20:43;103136.07;;;23.00;30.64
77778;BME280;66966;-34.746;138.604;2023-04-23T01:23:08;103132.44;;;23.11;30.29
77778;BME280;66966;-34.746;138.604;2023-04-23T01:25:35;103129.90;;;22.98;30.37
77778;BME280;66966;-34.746;138.604;2023-04-23T01:28:00;103126.81;;;23.15;30.17
77778;BME280;66966;-34.746;138.604;2023-04-23T01:30:26;103123.99;;;23.24;30.08
77778;BME280;66966;-34.746;138.604;2023-04-23T01:32:50;103120.96;;;22.94;30.33
77778;BME280;66966;-34.746;138.604;2023-04-23T01:35:16;103121.87;;;23.16;29.81
77778;BME280;66966;-34.746;138.604;2023-04-23T01:37:41;103115.58;;;23.48;29.42
77778;BME280;66966;-34.746;138.604;2023-04-23T01:40:08;103108.15;;;23.57;29.14
77778;BME280;66966;-34.746;138.604;2023-04-23T01:42:32;103107.76;;;23.45;29.66
77778;BME280;66966;-34.746;138.604;2023-04-23T01:44:58;103109.72;;;23.85;29.26
77778;BME280;66966;-34.746;138.604;2023-04-23T01:47:22;103109.22;;;23.71;29.40
77778;BME280;66966;-34.746;138.604;2023-04-23T01:49:47;103106.32;;;23.81;28.75
77778;BME280;66966;-34.746;138.604;2023-04-23T01:52:13;103106.23;;;24.15;28.91
77778;BME280;66966;-34.746;138.604;2023-04-23T01:54:38;103104.05;;;24.05;28.70
77778;BME280;66966;-34.746;138.604;2023-04-23T01:57:03;103104.43;;;23.90;28.62
77778;BME280;66966;-34.746;138.604;2023-04-23T01:59:29;103099.88;;;23.98;28.47
77778;BME280;66966;-34.746;138.604;2023-04-23T02:01:54;103089.85;;;24.30;28.08
77778;BME280;66966;-34.746;138.604;2023-04-23T02:04:20;103086.63;;;24.17;28.90
77778;BME280;66966;-34.746;138.604;2023-04-23T02:06:47;103084.29;;;24.50;28.95
77778;BME280;66966;-34.746;138.604;2023-04-23T02:09:10;103083.09;;;24.44;28.66
77778;BME280;66966;-34.746;138.604;2023-04-23T02:11:35;103073.13;;;24.37;27.29
77778;BME280;66966;-34.746;138.604;2023-04-23T02:14:01;103071.47;;;24.64;27.34
77778;BME280;66966;-34.746;138.604;2023-04-23T02:16:26;103067.03;;;24.64;27.44
77778;BME280;66966;-34.746;138.604;2023-04-23T02:18:51;103065.31;;;24.21;27.12
77778;BME280;66966;-34.746;138.604;2023-04-23T02:21:16;103063.55;;;24.80;27.89
77778;BME280;66966;-34.746;138.604;2023-04-23T02:23:42;103061.03;;;24.46;27.65
77778;BME280;66966;-34.746;138.604;2023-04-23T02:26:07;103056.57;;;25.10;28.15
77778;BME280;66966;-34.746;138.604;2023-04-23T02:28:32;103055.36;;;24.93;27.32
77778;BME280;66966;-34.746;138.604;2023-04-23T02:30:57;103050.73;;;24.90;27.29
77778;BME280;66966;-34.746;138.604;2023-04-23T02:33:23;103045.46;;;25.28;27.47
77778;BME280;66966;-34.746;138.604;2023-04-23T02:35:48;103041.49;;;25.34;27.07
77778;BME280;66966;-34.746;138.604;2023-04-23T02:38:13;103038.95;;;25.37;26.76
77778;BME280;66966;-34.746;138.604;2023-04-23T02:40:39;103033.20;;;25.44;26.56
77778;BME280;66966;-34.746;138.604;2023-04-23T02:43:03;103027.87;;;25.05;26.35
77778;BME280;66966;-34.746;138.604;2023-04-23T02:45:29;103023.46;;;25.37;26.39
77778;BME280;66966;-34.746;138.604;2023-04-23T02:47:54;103017.90;;;25.32;26.04
77778;BME280;66966;-34.746;138.604;2023-04-23T02:50:19;103011.37;;;25.37;26.67
77778;BME280;66966;-34.746;138.604;2023-04-23T02:52:45;103008.40;;;25.40;25.76
77778;BME280;66966;-34.746;138.604;2023-04-23T02:55:10;103006.14;;;25.23;26.36
77778;BME280;66966;-34.746;138.604;2023-04-23T02:57:35;103001.09;;;25.63;26.44
77778;BME280;66966;-34.746;138.604;2023-04-23T03:00:01;102996.43;;;25.72;26.44
77778;BME280;66966;-34.746;138.604;2023-04-23T03:02:25;102993.00;;;25.89;25.48
77778;BME280;66966;-34.746;138.604;2023-04-23T03:04:51;102987.92;;;25.76;25.54
77778;BME280;66966;-34.746;138.604;2023-04-23T03:07:16;102981.12;;;25.83;25.43
77778;BME280;66966;-34.746;138.604;2023-04-23T03:09:41;102978.10;;;26.16;25.59
77778;BME280;66966;-34.746;138.604;2023-04-23T03:12:06;102975.23;;;25.90;25.49
77778;BME280;66966;-34.746;138.604;2023-04-23T03:14:32;102973.55;;;25.97;25.84
77778;BME280;66966;-34.746;138.604;2023-04-23T03:16:57;102969.20;;;26.16;26.01
77778;BME280;66966;-34.746;138.604;2023-04-23T03:19:22;102967.67;;;26.30;26.05
77778;BME280;66966;-34.746;138.604;2023-04-23T03:21:47;102962.74;;;26.42;24.61
77778;BME280;66966;-34.746;138.604;2023-04-23T03:24:14;102956.67;;;26.19;25.21
77778;BME280;66966;-34.746;138.604;2023-04-23T03:26:37;102950.11;;;26.25;25.50
77778;BME280;66966;-34.746;138.604;2023-04-23T03:29:03;102946.82;;;26.28;24.88
77778;BME280;66966;-34.746;138.604;2023-04-23T03:31:28;102944.63;;;26.11;25.61
77778;BME280;66966;-34.746;138.604;2023-04-23T03:33:53;102940.01;;;26.75;24.40
77778;BME280;66966;-34.746;138.604;2023-04-23T03:36:18;102936.80;;;26.68;24.30
77778;BME280;66966;-34.746;138.604;2023-04-23T03:38:44;102932.08;;;26.28;25.18
77778;BME280;66966;-34.746;138.604;2023-04-23T03:41:09;102929.24;;;26.89;24.25
77778;BME280;66966;-34.746;138.604;2023-04-23T03:43:34;102925.48;;;26.72;24.53
77778;BME280;66966;-34.746;138.604;2023-04-23T03:45:59;102922.79;;;26.62;24.59
77778;BME280;66966;-34.746;138.604;2023-04-23T03:48:24;102922.37;;;26.75;25.15
77778;BME280;66966;-34.746;138.604;2023-04-23T03:50:50;102919.11;;;26.66;23.97
77778;BME280;66966;-34.746;138.604;2023-04-23T03:53:15;102916.33;;;26.87;24.12
77778;BME280;66966;-34.746;138.604;2023-04-23T03:55:40;102911.32;;;26.86;24.45
77778;BME280;66966;-34.746;138.604;2023-04-23T03:58:05;102907.15;;;26.98;24.59
77778;BME280;66966;-34.746;138.604;2023-04-23T04:00:30;102904.31;;;27.12;24.70
77778;BME280;66966;-34.746;138.604;2023-04-23T04:02:55;102901.22;;;27.06;24.46
77778;BME280;66966;-34.746;138.604;2023-04-23T04:05:22;102899.18;;;27.46;24.38
77778;BME280;66966;-34.746;138.604;2023-04-23T04:07:46;102900.97;;;27.36;24.10
77778;BME280;66966;-34.746;138.604;2023-04-23T04:10:11;102897.88;;;27.52;24.24
77778;BME280;66966;-34.746;138.604;2023-04-23T04:12:36;102893.91;;;27.68;24.15
77778;BME280;66966;-34.746;138.604;2023-04-23T04:15:02;102892.36;;;27.61;23.48
77778;BME280;66966;-34.746;138.604;2023-04-23T04:17:27;102891.43;;;28.02;24.36
77778;BME280;66966;-34.746;138.604;2023-04-23T04:19:52;102885.36;;;27.81;23.74
77778;BME280;66966;-34.746;138.604;2023-04-23T04:22:17;102885.83;;;27.86;23.42
77778;BME280;66966;-34.746;138.604;2023-04-23T04:24:42;102881.51;;;27.79;23.45
77778;BME280;66966;-34.746;138.604;2023-04-23T04:27:07;102877.51;;;27.90;23.44
77778;BME280;66966;-34.746;138.604;2023-04-23T04:29:33;102876.49;;;27.93;23.17
77778;BME280;66966;-34.746;138.604;2023-04-23T04:31:57;102873.81;;;27.92;23.07
77778;BME280;66966;-34.746;138.604;2023-04-23T04:34:23;102870.94;;;27.88;23.08
77778;BME280;66966;-34.746;138.604;2023-04-23T04:36:48;102867.53;;;27.55;22.84
77778;BME280;66966;-34.746;138.604;2023-04-23T04:39:13;102867.13;;;28.17;22.84
77778;BME280;66966;-34.746;138.604;2023-04-23T04:41:39;102865.69;;;28.26;22.93
77778;BME280;66966;-34.746;138.604;2023-04-23T04:44:03;102865.38;;;28.08;22.67
77778;BME280;66966;-34.746;138.604;2023-04-23T04:46:28;102865.88;;;28.18;22.43
77778;BME280;66966;-34.746;138.604;2023-04-23T04:48:54;102863.36;;;28.23;21.86
77778;BME280;66966;-34.746;138.604;2023-04-23T04:51:19;102860.76;;;28.21;21.22
77778;BME280;66966;-34.746;138.604;2023-04-23T04:53:44;102859.15;;;28.43;21.56
77778;BME280;66966;-34.746;138.604;2023-04-23T04:56:09;102844.27;;;28.25;21.27
77778;BME280;66966;-34.746;138.604;2023-04-23T04:58:34;102858.63;;;28.19;23.65
77778;BME280;66966;-34.746;138.604;2023-04-23T05:01:00;102861.40;;;27.99;22.15
77778;BME280;66966;-34.746;138.604;2023-04-23T05:03:24;102860.67;;;28.47;22.57
77778;BME280;66966;-34.746;138.604;2023-04-23T05:05:50;102860.86;;;28.91;22.74
77778;BME280;66966;-34.746;138.604;2023-04-23T05:08:15;102860.05;;;28.59;22.92
77778;BME280;66966;-34.746;138.604;2023-04-23T05:10:40;102854.02;;;28.79;22.42
77778;BME280;66966;-34.746;138.604;2023-04-23T05:13:05;102852.41;;;28.79;21.84
77778;BME280;66966;-34.746;138.604;2023-04-23T05:15:30;102851.63;;;28.84;21.53
77778;BME280;66966;-34.746;138.604;2023-04-23T05:17:55;102852.37;;;28.87;21.20
77778;BME280;66966;-34.746;138.604;2023-04-23T05:20:21;102848.39;;;29.03;21.80
77778;BME280;66966;-34.746;138.604;2023-04-23T05:22:45;102845.82;;;29.13;22.50
77778;BME280;66966;-34.746;138.604;2023-04-23T05:25:11;102841.80;;;29.13;22.00
77778;BME280;66966;-34.746;138.604;2023-04-23T05:27:36;102840.65;;;29.27;22.09
77778;BME280;66966;-34.746;138.604;2023-04-23T05:30:02;102840.01;;;29.34;21.66
77778;BME280;66966;-34.746;138.604;2023-04-23T05:32:26;102842.63;;;29.48;22.28
77778;BME280;66966;-34.746;138.604;2023-04-23T05:34:51;102840.36;;;29.33;21.34
77778;BME280;66966;-34.746;138.604;2023-04-23T05:37:16;102839.21;;;29.50;20.96
77778;BME280;66966;-34.746;138.604;2023-04-23T05:39:41;102834.75;;;29.53;21.96
77778;BME280;66966;-34.746;138.604;2023-04-23T05:42:06;102836.27;;;29.33;21.28
77778;BME280;66966;-34.746;138.604;2023-04-23T05:44:31;102835.54;;;29.40;21.08
77778;BME280;66966;-34.746;138.604;2023-04-23T05:46:56;102835.48;;;29.49;21.55
77778;BME280;66966;-34.746;138.604;2023-04-23T05:49:21;102833.72;;;29.53;20.75
77778;BME280;66966;-34.746;138.604;2023-04-23T05:51:46;102834.39;;;29.53;20.78
77778;BME280;66966;-34.746;138.604;2023-04-23T05:54:12;102832.57;;;29.62;20.99
77778;BME280;66966;-34.746;138.604;2023-04-23T05:56:37;102828.98;;;29.96;21.17
77778;BME280;66966;-34.746;138.604;2023-04-23T05:59:02;102831.52;;;29.55;20.20
77778;BME280;66966;-34.746;138.604;2023-04-23T06:01:27;102823.77;;;29.66;20.51
77778;BME280;66966;-34.746;138.604;2023-04-23T06:03:52;102823.01;;;30.05;20.38
77778;BME280;66966;-34.746;138.604;2023-04-23T06:06:17;102822.86;;;29.96;20.67
77778;BME280;66966;-34.746;138.604;2023-04-23T06:08:42;102820.79;;;29.98;20.42
77778;BME280;66966;-34.746;138.604;2023-04-23T06:11:07;102819.83;;;30.14;19.71
77778;BME280;66966;-34.746;138.604;2023-04-23T06:13:32;102821.61;;;29.88;19.77
77778;BME280;66966;-34.746;138.604;2023-04-23T06:15:57;102820.45;;;30.03;19.80
77778;BME280;66966;-34.746;138.604;2023-04-23T06:18:23;102819.44;;;29.85;20.36
77778;BME280;66966;-34.746;138.604;2023-04-23T06:20:47;102817.50;;;29.40;20.36
77778;BME280;66966;-34.746;138.604;2023-04-23T06:23:13;102815.66;;;29.94;20.00
77778;BME280;66966;-34.746;138.604;2023-04-23T06:25:38;102813.37;;;29.84;19.77
77778;BME280;66966;-34.746;138.604;2023-04-23T06:28:03;102811.41;;;30.03;20.11
77778;BME280;66966;-34.746;138.604;2023-04-23T06:30:28;102811.91;;;30.01;20.19
77778;BME280;66966;-34.746;138.604;2023-04-23T06:32:53;102811.39;;;29.95;20.37
77778;BME280;66966;-34.746;138.604;2023-04-23T06:35:18;102812.59;;;29.97;20.92
77778;BME280;66966;-34.746;138.604;2023-04-23T06:37:43;102810.76;;;29.47;21.71
77778;BME280;66966;-34.746;138.604;2023-04-23T06:40:09;102809.21;;;29.59;21.68
77778;BME280;66966;-34.746;138.604;2023-04-23T06:42:34;102809.72;;;29.33;22.04
77778;BME280;66966;-34.746;138.604;2023-04-23T06:44:58;102805.53;;;29.26;21.83
77778;BME280;66966;-34.746;138.604;2023-04-23T06:47:23;102805.45;;;29.38;21.67
77778;BME280;66966;-34.746;138.604;2023-04-23T06:49:48;102802.75;;;29.13;21.70
77778;BME280;66966;-34.746;138.604;2023-04-23T06:52:14;102802.94;;;29.00;22.07
77778;BME280;66966;-34.746;138.604;2023-04-23T06:54:39;102801.48;;;28.88;21.80
77778;BME280;66966;-34.746;138.604;2023-04-23T06:57:04;102802.78;;;28.93;21.85
77778;BME280;66966;-34.746;138.604;2023-04-23T06:59:29;102802.93;;;28.52;22.17
77778;BME280;66966;-34.746;138.604;2023-04-23T07:01:54;102804.97;;;28.75;22.37
77778;BME280;66966;-34.746;138.604;2023-04-23T07:04:19;102806.78;;;27.95;22.72
77778;BME280;66966;-34.746;138.604;2023-04-23T07:06:45;102804.59;;;28.26;22.83
77778;BME280;66966;-34.746;138.604;2023-04-23T07:09:09;102804.71;;;28.13;23.08
77778;BME280;66966;-34.746;138.604;2023-04-23T07:11:34;102805.54;;;28.08;23.12
77778;BME280;66966;-34.746;138.604;2023-04-23T07:14:00;102801.95;;;27.84;23.08
77778;BME280;66966;-34.746;138.604;2023-04-23T07:16:25;102806.77;;;27.78;23.52
77778;BME280;66966;-34.746;138.604;2023-04-23T07:18:50;102809.72;;;27.36;23.70
77778;BME280;66966;-34.746;138.604;2023-04-23T07:21:16;102811.80;;;27.41;23.92
77778;BME280;66966;-34.746;138.604;2023-04-23T07:23:41;102808.67;;;27.23;24.06
77778;BME280;66966;-34.746;138.604;2023-04-23T07:26:06;102808.67;;;27.28;24.30
77778;BME280;66966;-34.746;138.604;2023-04-23T07:28:31;102804.65;;;26.83;24.45
77778;BME280;66966;-34.746;138.604;2023-04-23T07:30:57;102804.72;;;26.88;24.70
77778;BME280;66966;-34.746;138.604;2023-04-23T07:33:22;102802.99;;;26.93;24.92
77778;BME280;66966;-34.746;138.604;2023-04-23T07:35:47;102800.34;;;26.74;25.12
77778;BME280;66966;-34.746;138.604;2023-04-23T07:38:12;102803.43;;;26.56;25.14
77778;BME280;66966;-34.746;138.604;2023-04-23T07:40:37;102805.43;;;26.17;25.33
77778;BME280;66966;-34.746;138.604;2023-04-23T07:43:03;102810.80;;;25.96;25.51
77778;BME280;66966;-34.746;138.604;2023-04-23T07:45:28;102810.51;;;25.81;25.68
77778;BME280;66966;-34.746;138.604;2023-04-23T07:47:53;102811.27;;;26.19;26.16
77778;BME280;66966;-34.746;138.604;2023-04-23T07:50:18;102807.43;;;25.85;26.10
77778;BME280;66966;-34.746;138.604;2023-04-23T07:52:44;102811.35;;;25.84;26.33
77778;BME280;66966;-34.746;138.604;2023-04-23T07:55:10;102813.27;;;25.98;26.37
77778;BME280;66966;-34.746;138.604;2023-04-23T07:57:35;102809.45;;;25.64;26.39
77778;BME280;66966;-34.746;138.604;2023-04-23T08:00:00;102811.45;;;25.57;26.54
77778;BME280;66966;-34.746;138.604;2023-04-23T08:02:25;102810.73;;;25.51;27.10
77778;BME280;66966;-34.746;138.604;2023-04-23T08:04:50;102810.72;;;25.45;27.52
77778;BME280;66966;-34.746;138.604;2023-04-23T08:07:16;102815.85;;;25.31;27.28
77778;BME280;66966;-34.746;138.604;2023-04-23T08:09:42;102817.51;;;25.23;27.01
77778;BME280;66966;-34.746;138.604;2023-04-23T08:12:07;102816.45;;;25.57;27.12
77778;BME280;66966;-34.746;138.604;2023-04-23T08:14:32;102816.57;;;25.42;27.17
77778;BME280;66966;-34.746;138.604;2023-04-23T08:16:57;102819.36;;;25.27;27.30
77778;BME280;66966;-34.746;138.604;2023-04-23T08:19:23;102820.62;;;25.12;27.40
77778;BME280;66966;-34.746;138.604;2023-04-23T08:21:48;102825.38;;;25.05;27.62
77778;BME280;66966;-34.746;138.604;2023-04-23T08:24:13;102826.33;;;24.88;27.79
77778;BME280;66966;-34.746;138.604;2023-04-23T08:26:39;102826.35;;;24.78;27.80
77778;BME280;66966;-34.746;138.604;2023-04-23T08:29:06;102826.04;;;23.71;28.00
77778;BME280;66966;-34.746;138.604;2023-04-23T08:40:58;102830.30;;;24.33;26.99
77778;BME280;66966;-34.746;138.604;2023-04-23T08:41:05;102834.27;;;24.93;26.41
77778;BME280;66966;-34.746;138.604;2023-04-23T08:43:32;102832.60;;;25.02;26.57
77778;BME280;66966;-34.746;138.604;2023-04-23T08:45:53;102836.38;;;24.99;27.17
77778;BME280;66966;-34.746;138.604;2023-04-23T08:48:18;102835.85;;;24.54;28.01
77778;BME280;66966;-34.746;138.604;2023-04-23T08:50:44;102834.00;;;24.28;28.62
77778;BME280;66966;-34.746;138.604;2023-04-23T08:53:08;102838.07;;;24.14;29.10
77778;BME280;66966;-34.746;138.604;2023-04-23T08:55:35;102840.70;;;23.75;29.60
77778;BME280;66966;-34.746;138.604;2023-04-23T08:57:59;102843.34;;;23.70;29.90
77778;BME280;66966;-34.746;138.604;2023-04-23T09:00:24;102845.27;;;23.18;30.29
77778;BME280;66966;-34.746;138.604;2023-04-23T09:02:49;102845.60;;;23.20;30.58
77778;BME280;66966;-34.746;138.604;2023-04-23T09:05:15;102846.72;;;23.01;30.84
77778;BME280;66966;-34.746;138.604;2023-04-23T09:07:42;102849.17;;;22.87;30.95
77778;BME280;66966;-34.746;138.604;2023-04-23T09:10:07;102846.69;;;22.70;31.23
77778;BME280;66966;-34.746;138.604;2023-04-23T09:12:31;102850.21;;;22.57;31.40
77778;BME280;66966;-34.746;138.604;2023-04-23T09:14:57;102850.95;;;22.45;31.52
77778;BME280;66966;-34.746;138.604;2023-04-23T09:17:23;102856.22;;;22.35;31.80
77778;BME280;66966;-34.746;138.604;2023-04-23T09:19:47;102853.44;;;22.49;32.05
77778;BME280;66966;-34.746;138.604;2023-04-23T09:22:12;102850.73;;;22.47;31.98
77778;BME280;66966;-34.746;138.604;2023-04-23T09:24:37;102855.73;;;22.62;32.16
77778;BME280;66966;-34.746;138.604;2023-04-23T09:27:03;102856.50;;;22.31;32.22
77778;BME280;66966;-34.746;138.604;2023-04-23T09:29:28;102854.50;;;22.18;32.36
77778;BME280;66966;-34.746;138.604;2023-04-23T09:31:57;102853.36;;;22.31;32.42
77778;BME280;66966;-34.746;138.604;2023-04-23T09:34:19;102852.82;;;22.26;32.41
77778;BME280;66966;-34.746;138.604;2023-04-23T09:36:44;102852.36;;;22.19;32.55
77778;BME280;66966;-34.746;138.604;2023-04-23T09:39:12;102850.94;;;21.85;32.67
77778;BME280;66966;-34.746;138.604;2023-04-23T09:41:34;102852.32;;;22.01;32.81
77778;BME280;66966;-34.746;138.604;2023-04-23T09:44:01;102853.48;;;22.15;32.93
77778;BME280;66966;-34.746;138.604;2023-04-23T09:46:35;102855.20;;;21.80;33.03
77778;BME280;66966;-34.746;138.604;2023-04-23T09:48:50;102859.02;;;21.78;32.83
77778;BME280;66966;-34.746;138.604;2023-04-23T09:51:16;102860.33;;;22.03;32.58
77778;BME280;66966;-34.746;138.604;2023-04-23T09:53:42;102861.03;;;22.01;32.23
77778;BME280;66966;-34.746;138.604;2023-04-23T09:56:07;102862.95;;;21.76;31.93
77778;BME280;66966;-34.746;138.604;2023-04-23T09:58:32;102862.52;;;21.75;31.82
77778;BME280;66966;-34.746;138.604;2023-04-23T10:01:05;102864.58;;;21.95;31.51
77778;BME280;66966;-34.746;138.604;2023-04-23T10:03:27;102861.63;;;21.95;31.60
77778;BME280;66966;-34.746;138.604;2023-04-23T10:05:48;102861.84;;;21.73;31.20
77778;BME280;66966;-34.746;138.604;2023-04-23T10:08:14;102864.34;;;21.73;31.00
77778;BME280;66966;-34.746;138.604;2023-04-23T10:10:39;102866.53;;;21.72;30.81
77778;BME280;66966;-34.746;138.604;2023-04-23T10:13:05;102866.94;;;22.15;30.62
77778;BME280;66966;-34.746;138.604;2023-04-23T10:15:30;102869.34;;;21.62;30.37
77778;BME280;66966;-34.746;138.604;2023-04-23T10:17:55;102867.96;;;21.61;30.09
77778;BME280;66966;-34.746;138.604;2023-04-23T10:20:22;102867.46;;;21.62;30.37
77778;BME280;66966;-34.746;138.604;2023-04-23T10:22:46;102867.49;;;21.65;29.98
77778;BME280;66966;-34.746;138.604;2023-04-23T10:25:12;102869.89;;;21.62;30.17
77778;BME280;66966;-34.746;138.604;2023-04-23T10:27:39;102873.19;;;21.62;29.73
77778;BME280;66966;-34.746;138.604;2023-04-23T10:30:03;102872.51;;;21.36;29.90
77778;BME280;66966;-34.746;138.604;2023-04-23T10:32:28;102872.84;;;21.79;29.58
77778;BME280;66966;-34.746;138.604;2023-04-23T10:34:53;102871.37;;;21.39;29.68
77778;BME280;66966;-34.746;138.604;2023-04-23T10:37:19;102874.15;;;21.57;29.90
77778;BME280;66966;-34.746;138.604;2023-04-23T10:39:46;102874.76;;;21.53;29.71
77778;BME280;66966;-34.746;138.604;2023-04-23T10:42:10;102875.01;;;21.48;29.64
77778;BME280;66966;-34.746;138.604;2023-04-23T10:44:37;102874.76;;;21.44;29.83
77778;BME280;66966;-34.746;138.604;2023-04-23T10:47:00;102875.28;;;21.15;29.65
77778;BME280;66966;-34.746;138.604;2023-04-23T10:49:28;102874.34;;;21.57;29.51
77778;BME280;66966;-34.746;138.604;2023-04-23T10:51:59;102875.81;;;21.10;29.73
77778;BME280;66966;-34.746;138.604;2023-04-23T10:54:18;102875.53;;;21.28;29.64
77778;BME280;66966;-34.746;138.604;2023-04-23T10:56:42;102873.94;;;21.48;29.45
77778;BME280;66966;-34.746;138.604;2023-04-23T10:59:07;102873.23;;;20.95;29.59
77778;BME280;66966;-34.746;138.604;2023-04-23T11:01:33;102873.42;;;21.37;29.44
77778;BME280;66966;-34.746;138.604;2023-04-23T11:03:58;102874.20;;;21.31;29.33
77778;BME280;66966;-34.746;138.604;2023-04-23T11:08:52;102876.49;;;21.12;29.54
77778;BME280;66966;-34.746;138.604;2023-04-23T11:11:14;102880.79;;;21.08;29.44
77778;BME280;66966;-34.746;138.604;2023-04-23T11:16:14;102882.02;;;20.89;29.43
77778;BME280;66966;-34.746;138.604;2023-04-23T11:18:30;102882.93;;;21.09;29.48
77778;BME280;66966;-34.746;138.604;2023-04-23T11:20:57;102882.36;;;21.07;29.66
77778;BME280;66966;-34.746;138.604;2023-04-23T11:23:28;102883.22;;;20.99;29.56
77778;BME280;66966;-34.746;138.604;2023-04-23T11:25:47;102882.20;;;21.00;29.51
77778;BME280;66966;-34.746;138.604;2023-04-23T11:28:12;102884.07;;;20.79;29.45
77778;BME280;66966;-34.746;138.604;2023-04-23T11:30:37;102883.77;;;20.83;29.39
77778;BME280;66966;-34.746;138.604;2023-04-23T11:33:03;102884.01;;;21.05;29.38
77778;BME280;66966;-34.746;138.604;2023-04-23T11:35:28;102884.85;;;21.05;29.52
77778;BME280;66966;-34.746;138.604;2023-04-23T11:37:54;102885.28;;;20.75;29.58
77778;BME280;66966;-34.746;138.604;2023-04-23T11:40:20;102886.59;;;20.72;29.51
77778;BME280;66966;-34.746;138.604;2023-04-23T11:42:46;102888.39;;;20.77;29.35
77778;BME280;66966;-34.746;138.604;2023-04-23T11:45:15;102887.50;;;20.99;29.63
77778;BME280;66966;-34.746;138.604;2023-04-23T11:47:35;102883.52;;;20.67;29.78
77778;BME280;66966;-34.746;138.604;2023-04-23T11:50:01;102882.75;;;20.80;29.70
77778;BME280;66966;-34.746;138.604;2023-04-23T11:52:27;102885.42;;;20.50;29.68
77778;BME280;66966;-34.746;138.604;2023-04-23T11:54:51;102883.31;;;20.89;29.94
77778;BME280;66966;-34.746;138.604;2023-04-23T11:57:17;102885.80;;;20.56;30.01
77778;BME280;66966;-34.746;138.604;2023-04-23T11:59:42;102886.14;;;20.48;29.93
77778;BME280;66966;-34.746;138.604;2023-04-23T12:02:08;102887.16;;;20.38;30.04
77778;BME280;66966;-34.746;138.604;2023-04-23T12:04:33;102887.65;;;20.36;29.85
77778;BME280;66966;-34.746;138.604;2023-04-23T12:06:59;102887.66;;;20.40;29.85
77778;BME280;66966;-34.746;138.604;2023-04-23T12:09:26;102888.42;;;20.61;29.97
77778;BME280;66966;-34.746;138.604;2023-04-23T12:11:50;102888.39;;;20.39;29.92
77778;BME280;66966;-34.746;138.604;2023-04-23T12:14:16;102888.39;;;20.38;29.88
77778;BME280;66966;-34.746;138.604;2023-04-23T12:16:42;102889.67;;;20.15;29.83
77778;BME280;66966;-34.746;138.604;2023-04-23T12:19:08;102891.44;;;20.67;29.64
77778;BME280;66966;-34.746;138.604;2023-04-23T12:21:32;102893.25;;;20.49;29.58